This is the latest recevied weather packets stored in our database for station/object IZ1UKX-13. If no packets are shown the sender has not sent any weather packets the latest 10 day(s).
| Time | Temp. | Humidity | Pressure | Rain* | Wind** | Luminosity | Snow |
|---|---|---|---|---|---|---|---|
| 1777479592 | 23.33° C | 49% | 1022.3 hPa | 0 mm | - | 0 W/m² | - |
| 1777479292 | 23.89° C | 47% | 1022.3 hPa | 0 mm | - | 0 W/m² | - |
| 1777478993 | 23.89° C | 46% | 1022.3 hPa | 0 mm | - | 0 W/m² | - |
| 1777478692 | 23.89° C | 45% | 1022.3 hPa | 0 mm | - | 0 W/m² | - |
| 1777478391 | 24.44° C | 44% | 1022.3 hPa | 0 mm | - | 0 W/m² | - |
| 1777478091 | 25° C | 44% | 1022.3 hPa | 0 mm | - | 0 W/m² | - |
| 1777477792 | 24.44° C | 45% | 1022.3 hPa | 0 mm | - | 0 W/m² | - |
| 1777477492 | 24.44° C | 44% | 1022.3 hPa | 0 mm | - | 0 W/m² | - |
| 1777477192 | 25° C | 42% | 1021.8 hPa | 0 mm | - | 0 W/m² | - |
| 1777476892 | 25.56° C | 42% | 1021.8 hPa | 0 mm | - | 0 W/m² | - |
| 1777476592 | 26.11° C | 41% | 1021.8 hPa | 0 mm | - | 0 W/m² | - |
| 1777476292 | 26.67° C | 40% | 1021.8 hPa | 0 mm | - | 0 W/m² | - |
| 1777475992 | 25.56° C | 43% | 1021.8 hPa | 0 mm | - | 0 W/m² | - |
| 1777475692 | 25° C | 45% | 1022.3 hPa | 0 mm | - | 0 W/m² | - |
| 1777475392 | 23.33° C | 47% | 1022.3 hPa | 0 mm | - | 0 W/m² | - |
| 1777475092 | 22.22° C | 49% | 1022.7 hPa | 0 mm | - | 0 W/m² | - |
| 1777474792 | 21.67° C | 49% | 1022.7 hPa | 0 mm | - | 0 W/m² | - |
| 1777474492 | 22.78° C | 48% | 1022.7 hPa | 0 mm | - | 0 W/m² | - |
| 1777474192 | 22.78° C | 47% | 1022.7 hPa | 0 mm | - | 0 W/m² | - |
| 1777473892 | 22.78° C | 47% | 1022.7 hPa | 0 mm | - | 0 W/m² | - |
| 1777473592 | 22.78° C | 47% | 1022.7 hPa | 0 mm | - | 0 W/m² | - |
| 1777473292 | 22.78° C | 46% | 1022.3 hPa | 0 mm | - | 0 W/m² | - |
| 1777472992 | 23.33° C | 46% | 1022.3 hPa | 0 mm | - | 0 W/m² | - |
| 1777472692 | 22.78° C | 47% | 1022.7 hPa | 0 mm | - | 0 W/m² | - |
| 1777472392 | 22.78° C | 47% | 1022.7 hPa | 0 mm | - | 0 W/m² | - |
* Rain latest hour (hover to see other rain measurements)
** Current wind speed in m/s (hover to see current wind gust speed)